Hovedside
METAR-TAF:

METAR-TAF

Lufthavner :

Halmstad lufthavn

Halmstad, Sverige

breddegrad: 56-41N, lengdegrad: 012-50E, høyde over havet: 30 m

Gjeldene værobservasjon

Denne rapporten ble laget for 29 minutter siden, klokken 18:50 UTC
Vind 2 kt fra skiftende retning
Temperatur 18°C
Luftfuktighet 56%
Trykk 1027 hPa
Sikt 10 km eller mer

METAR: ESMT 201850Z AUTO VRB02KT 9999 NCD 18/09 Q1027

Tid: 21:19 (19:19 UTC)

Varsel

Denne rapporten ble laget for 2 timer og 17 minutter siden, klokken 17:02 UTC
Varsel gyldig fra 20. klokken 18 UTC til 20. klokken 20 UTC
Vind 8 kt fra Vest-nordvest
Sikt 10 km eller mer
ingen skyer under 1500 m og ingen bygeskyer

TAF: ESMT 201702Z 2018/2020 30008KT CAVOK

Værobservasjoner og værvarsel for over 4000 flyplasser (METAR- og TAF-rapporter).

Tilgjengelige stasjoner er representert av de røde og gule prikkene på kartet.

Hold musepekeren over prikken for å se navnet på stasjonen.

Klikk så for å se værobservasjoner og -varsler.

For å forandre kartet kan du klikke på den grønne knappen med svart kryss for å zoome inn, på den grønne knappen med strek for å zoome ut, eller på de grønne pilene for å se tilstøtende kart.


METAR-TAF: